Time;durP1;ratioP1;P1;durP2;ratioP2;P2;SDS_P1;SDS_P2;PMS_P1;PMS_P2;Temp;Humidity;BMP_temperature;BMP_pressure;BME280_temperature;BME280_humidity;BME280_pressure;Samples;Min_cycle;Max_cycle;Signal;HPM_P1;HPM_P2
2021/11/04 00:00:38;;;;;;;90.57;45.20;;;7.90;99.90;;;;;;4918139;29;20063;-75
2021/11/04 00:03:05;;;;;;;97.32;47.92;;;8.00;99.90;;;;;;4918399;29;20500;-75
2021/11/04 00:05:33;;;;;;;91.55;46.15;;;8.00;99.90;;;;;;4917983;29;20052;-75
2021/11/04 00:08:03;;;;;;;90.80;45.33;;;7.90;99.90;;;;;;4917998;29;20054;-76
2021/11/04 00:10:31;;;;;;;91.82;44.63;;;7.90;99.90;;;;;;4921810;29;20048;-76
2021/11/04 00:12:59;;;;;;;95.10;45.42;;;8.00;99.90;;;;;;4918049;29;20058;-75
2021/11/04 00:15:26;;;;;;;96.95;44.47;;;8.00;99.90;;;;;;4917863;29;20156;-75
2021/11/04 00:17:54;;;;;;;95.47;45.95;;;7.90;99.90;;;;;;4917869;29;20449;-78
2021/11/04 00:20:21;;;;;;;88.68;43.80;;;7.90;99.90;;;;;;4918165;29;20115;-75
2021/11/04 00:22:49;;;;;;;96.15;44.72;;;7.90;99.90;;;;;;4917874;29;20094;-75
2021/11/04 00:25:19;;;;;;;91.97;44.85;;;7.90;99.90;;;;;;4917711;29;20048;-75
2021/11/04 00:27:46;;;;;;;95.30;46.28;;;7.90;99.90;;;;;;4918033;29;20402;-75
2021/11/04 00:30:15;;;;;;;93.95;44.67;;;7.90;99.90;;;;;;4917928;29;20417;-75
2021/11/04 00:32:46;;;;;;;90.85;45.13;;;7.90;99.90;;;;;;4918029;29;20131;-75
2021/11/04 00:35:14;;;;;;;94.95;45.10;;;7.90;99.90;;;;;;4917686;29;20072;-76
2021/11/04 00:37:41;;;;;;;100.47;45.63;;;7.90;99.90;;;;;;4917612;29;20135;-76
2021/11/04 00:40:10;;;;;;;92.35;44.85;;;7.90;99.90;;;;;;4917778;29;20371;-74
2021/11/04 00:42:37;;;;;;;95.38;45.90;;;7.90;99.90;;;;;;4919980;29;20135;-77
2021/11/04 00:45:05;;;;;;;93.90;45.53;;;8.00;99.90;;;;;;4921002;29;20052;-74
2021/11/04 00:47:33;;;;;;;92.43;46.42;;;7.90;99.90;;;;;;4921184;29;20138;-75
2021/11/04 00:50:00;;;;;;;91.70;45.85;;;8.00;99.90;;;;;;4921213;29;20064;-75
2021/11/04 00:52:27;;;;;;;95.90;45.95;;;8.00;99.90;;;;;;4921031;29;20423;-74
2021/11/04 00:54:54;;;;;;;96.95;47.00;;;8.00;99.90;;;;;;4921178;29;20292;-75
2021/11/04 00:57:21;;;;;;;90.40;44.60;;;7.90;99.90;;;;;;4920856;29;20052;-76
2021/11/04 00:59:48;;;;;;;91.90;44.97;;;8.00;99.90;;;;;;4921233;29;20345;-75
2021/11/04 01:02:15;;;;;;;97.50;45.15;;;7.90;99.90;;;;;;4921059;29;20048;-76
2021/11/04 01:04:44;;;;;;;95.70;44.67;;;8.00;99.90;;;;;;4920939;29;20418;-76
2021/11/04 01:07:11;;;;;;;98.05;45.70;;;7.90;99.90;;;;;;4920369;29;20066;-75
2021/11/04 01:09:37;;;;;;;94.00;45.42;;;7.90;99.90;;;;;;4920972;29;20135;-75
2021/11/04 01:12:05;;;;;;;92.85;44.45;;;7.90;99.90;;;;;;4920782;29;20473;-75
2021/11/04 01:14:32;;;;;;;97.88;44.08;;;7.90;99.90;;;;;;4920658;29;20058;-75
2021/11/04 01:16:59;;;;;;;91.57;45.90;;;7.90;99.90;;;;;;4920252;29;20496;-74
2021/11/04 01:19:26;;;;;;;84.95;44.17;;;7.90;99.90;;;;;;4920558;29;20139;-76
2021/11/04 01:21:54;;;;;;;89.10;43.80;;;8.00;99.90;;;;;;4920923;29;20159;-75
2021/11/04 01:24:21;;;;;;;87.72;43.42;;;8.00;99.90;;;;;;4920885;29;20131;-75
2021/11/04 01:26:48;;;;;;;87.82;43.60;;;8.00;99.90;;;;;;4920256;29;20134;-75
2021/11/04 01:29:14;;;;;;;93.00;45.15;;;7.90;99.90;;;;;;4920620;29;20153;-75
2021/11/04 01:31:41;;;;;;;92.10;44.00;;;7.90;99.90;;;;;;4920378;29;20076;-75
2021/11/04 01:34:08;;;;;;;90.57;42.30;;;7.90;99.90;;;;;;4920276;29;20541;-75
2021/11/04 01:36:35;;;;;;;89.97;42.05;;;7.90;99.90;;;;;;4919899;29;20135;-75
2021/11/04 01:39:05;;;;;;;86.45;42.17;;;7.90;99.90;;;;;;4920459;29;20346;-75
2021/11/04 01:41:32;;;;;;;94.30;42.53;;;7.80;99.90;;;;;;4920335;29;20060;-76
2021/11/04 01:43:59;;;;;;;94.25;41.88;;;7.80;99.90;;;;;;4920167;29;20048;-75
2021/11/04 01:46:27;;;;;;;90.93;42.85;;;7.80;99.90;;;;;;4919785;29;20052;-75
2021/11/04 01:48:54;;;;;;;90.60;43.78;;;7.80;99.90;;;;;;4919921;29;20094;-74
2021/11/04 01:51:21;;;;;;;92.10;42.55;;;7.80;99.90;;;;;;4920212;29;20135;-75
2021/11/04 01:53:49;;;;;;;90.25;43.20;;;7.80;99.90;;;;;;4919897;29;20062;-74
2021/11/04 01:56:17;;;;;;;87.25;43.38;;;7.80;99.90;;;;;;4919489;29;20143;-73
2021/11/04 01:58:44;;;;;;;95.20;43.88;;;7.80;99.90;;;;;;4920217;29;20087;-75
2021/11/04 02:01:11;;;;;;;90.20;43.42;;;7.90;99.90;;;;;;4919691;29;20131;-75
2021/11/04 02:03:47;;;;;;;96.25;43.90;;;7.90;99.90;;;;;;4919909;29;20048;-74
2021/11/04 02:06:21;;;;;;;99.72;44.92;;;7.80;99.90;;;;;;4919325;29;20466;-74
2021/11/04 02:08:54;;;;;;;94.70;44.38;;;7.80;99.90;;;;;;4919830;29;20135;-75
2021/11/04 02:11:28;;;;;;;98.50;43.28;;;7.70;99.90;;;;;;4919759;29;20103;-74
2021/11/04 02:13:59;;;;;;;90.30;42.58;;;7.70;99.90;;;;;;4919768;29;20348;-75
2021/11/04 02:16:29;;;;;;;92.97;42.67;;;7.80;99.90;;;;;;4919277;29;20131;-74
2021/11/04 02:19:00;;;;;;;89.57;43.40;;;7.80;99.90;;;;;;4919792;29;20143;-75
2021/11/04 02:21:35;;;;;;;101.32;43.20;;;7.70;99.90;;;;;;4919418;29;20360;-75
2021/11/04 02:24:10;;;;;;;98.60;42.60;;;7.70;99.90;;;;;;4919237;29;20052;-73
2021/11/04 02:26:39;;;;;;;101.78;43.88;;;7.70;99.90;;;;;;4919059;29;20087;-75
2021/11/04 02:29:08;;;;;;;99.40;42.90;;;7.70;99.90;;;;;;4919205;29;20138;-75
2021/11/04 02:31:35;;;;;;;95.15;42.20;;;7.60;99.90;;;;;;4919339;29;20056;-75
2021/11/04 02:34:03;;;;;;;86.18;41.67;;;7.70;99.90;;;;;;4919266;29;20076;-75
2021/11/04 02:36:30;;;;;;;89.28;40.45;;;7.60;99.90;;;;;;4918759;29;20076;-76
2021/11/04 02:38:58;;;;;;;98.35;42.10;;;7.60;99.90;;;;;;4919326;29;20078;-75
2021/11/04 02:41:30;;;;;;;85.45;38.28;;;7.60;99.90;;;;;;4919172;29;20066;-77
2021/11/04 02:43:59;;;;;;;87.38;37.72;;;7.50;99.90;;;;;;4919054;29;20070;-75
2021/11/04 02:46:27;;;;;;;85.93;38.80;;;7.50;99.90;;;;;;4918637;29;20051;-76
2021/11/04 02:48:54;;;;;;;84.85;39.70;;;7.50;99.90;;;;;;4918923;29;20138;-75
2021/11/04 02:51:21;;;;;;;88.68;41.78;;;7.50;99.90;;;;;;4918736;29;20428;-75
2021/11/04 02:53:49;;;;;;;88.75;39.92;;;7.50;99.90;;;;;;4919287;29;20063;-75
2021/11/04 02:56:15;;;;;;;92.70;42.85;;;7.50;99.90;;;;;;4918456;29;20139;-75
2021/11/04 02:58:42;;;;;;;104.20;45.92;;;7.50;99.90;;;;;;4918859;29;20084;-75
2021/11/04 03:01:11;;;;;;;94.80;44.15;;;7.50;99.90;;;;;;4918832;29;20048;-76
2021/11/04 03:03:37;;;;;;;93.82;42.92;;;7.50;99.90;;;;;;4918227;29;20052;-76
2021/11/04 03:06:05;;;;;;;95.75;43.95;;;7.50;99.90;;;;;;4918064;29;20424;-76
2021/11/04 03:08:31;;;;;;;98.80;43.13;;;7.50;99.90;;;;;;4918908;29;20159;-74
2021/11/04 03:10:58;;;;;;;97.65;43.05;;;7.50;99.90;;;;;;4918746;29;20090;-74
2021/11/04 03:13:25;;;;;;;94.45;44.05;;;7.50;99.90;;;;;;4918668;29;20052;-77
2021/11/04 03:15:57;;;;;;;100.38;44.63;;;7.50;99.90;;;;;;4918471;29;20333;-76
2021/11/04 03:18:26;;;;;;;97.32;43.28;;;7.50;99.90;;;;;;4918222;29;20187;-76
2021/11/04 03:20:54;;;;;;;93.63;41.28;;;7.50;99.90;;;;;;4918700;29;20135;-77
2021/11/04 03:23:23;;;;;;;95.20;41.75;;;7.50;99.90;;;;;;4918574;29;20056;-76
2021/11/04 03:25:51;;;;;;;96.35;43.45;;;7.40;99.90;;;;;;4918361;29;20058;-76
2021/11/04 03:28:19;;;;;;;107.30;46.03;;;7.50;99.90;;;;;;4918423;29;20355;-76
2021/11/04 03:30:47;;;;;;;100.90;44.33;;;7.40;99.90;;;;;;4918366;29;20503;-76
2021/11/04 03:33:15;;;;;;;99.60;42.95;;;7.50;99.90;;;;;;4918625;29;20135;-76
2021/11/04 03:35:44;;;;;;;102.80;42.25;;;7.50;99.90;;;;;;4918054;29;20048;-75
2021/11/04 03:38:13;;;;;;;106.85;43.17;;;7.40;99.90;;;;;;4918270;29;20048;-76
2021/11/04 03:40:41;;;;;;;105.70;43.25;;;7.40;99.90;;;;;;4918201;29;20056;-75
2021/11/04 03:43:09;;;;;;;99.35;42.95;;;7.40;99.90;;;;;;4918107;29;20056;-75
2021/11/04 03:45:37;;;;;;;100.43;41.35;;;7.40;99.90;;;;;;4917895;29;20079;-75
2021/11/04 03:48:05;;;;;;;93.03;41.40;;;7.40;99.90;;;;;;4918341;29;20404;-76
2021/11/04 03:50:33;;;;;;;93.30;40.50;;;7.30;99.90;;;;;;4918083;29;20507;-75
2021/11/04 03:53:02;;;;;;;91.20;39.80;;;7.30;99.90;;;;;;4918196;29;20059;-75
2021/11/04 03:55:31;;;;;;;95.95;39.75;;;7.30;99.90;;;;;;4917812;29;20055;-76
2021/11/04 03:57:59;;;;;;;93.95;40.17;;;7.20;99.90;;;;;;4918082;29;20115;-75
2021/11/04 04:00:26;;;;;;;94.90;40.25;;;7.30;99.90;;;;;;4918028;29;20082;-76
2021/11/04 04:02:53;;;;;;;88.93;39.53;;;7.30;99.90;;;;;;4918409;29;20052;-75
2021/11/04 04:05:28;;;;;;;91.20;36.72;;;7.20;99.90;;;;;;4918021;29;20135;-75
2021/11/04 04:07:56;;;;;;;88.20;37.20;;;7.20;99.90;;;;;;4917999;29;20346;-75
2021/11/04 04:10:24;;;;;;;81.60;35.47;;;7.20;99.90;;;;;;4917900;29;20052;-75
2021/11/04 04:12:52;;;;;;;88.78;36.28;;;7.20;99.90;;;;;;4918246;29;20452;-75
2021/11/04 04:15:18;;;;;;;87.60;37.45;;;7.20;99.90;;;;;;4917662;29;20455;-75
2021/11/04 04:17:45;;;;;;;90.82;35.15;;;7.30;99.90;;;;;;4943446;23;20140;-80
2021/11/04 04:20:13;;;;;;;89.25;39.03;;;7.30;99.90;;;;;;4922128;29;20407;-80
2021/11/04 04:22:40;;;;;;;104.20;39.85;;;7.30;99.90;;;;;;4922616;29;20092;-80
2021/11/04 04:25:08;;;;;;;98.97;39.28;;;7.40;99.90;;;;;;4922496;29;20088;-81
2021/11/04 04:27:37;;;;;;;110.88;40.92;;;7.40;99.90;;;;;;4921677;29;20052;-80
2021/11/04 04:30:05;;;;;;;106.80;40.55;;;7.40;99.90;;;;;;4920608;29;20048;-80
2021/11/04 04:32:32;;;;;;;100.25;40.70;;;7.40;99.90;;;;;;4920725;29;20060;-80
2021/11/04 04:38:24;;;;;;;100.30;40.75;;;7.50;99.90;;;;;;4879839;29;20052;-81
2021/11/04 04:40:58;;;;;;;100.68;40.72;;;7.50;99.90;;;;;;4921269;29;20056;-80
2021/11/04 04:43:28;;;;;;;101.55;40.53;;;7.50;99.90;;;;;;4919610;29;20054;-83
2021/11/04 04:45:58;;;;;;;113.60;42.65;;;7.50;99.90;;;;;;4920359;29;20052;-83
2021/11/04 04:48:50;;;;;;;103.15;41.28;;;7.40;99.90;;;;;;4920982;29;20056;-83
2021/11/04 04:51:20;;;;;;;96.65;40.20;;;7.50;99.90;;;;;;4920906;29;20499;-83
2021/11/04 04:53:52;;;;;;;103.45;42.13;;;7.50;99.90;;;;;;4920770;29;20056;-83
2021/11/04 04:56:34;;;;;;;112.88;45.22;;;7.50;99.90;;;;;;4919194;29;20123;-82
2021/11/04 04:59:20;;;;;;;110.75;42.05;;;7.50;99.90;;;;;;4919424;29;20644;-84
2021/11/04 05:05:32;;;;;;;117.27;44.43;;;7.40;99.90;;;;;;4918193;29;20084;-81
2021/11/04 05:08:17;;;;;;;125.72;45.03;;;7.50;99.90;;;;;;4920769;29;20052;-81
2021/11/04 05:10:56;;;;;;;118.75;45.53;;;7.50;99.90;;;;;;4920753;29;20088;-83
2021/11/04 05:13:27;;;;;;;127.85;46.70;;;7.40;99.90;;;;;;4920870;29;20141;-83
2021/11/04 05:16:07;;;;;;;130.57;45.83;;;7.50;99.90;;;;;;4921096;29;20059;-83
2021/11/04 05:18:35;;;;;;;117.97;45.47;;;7.50;99.90;;;;;;4922078;29;20052;-83
2021/11/04 05:21:11;;;;;;;129.93;46.83;;;7.50;99.90;;;;;;4925739;29;20090;-82
2021/11/04 05:23:45;;;;;;;135.23;46.40;;;7.40;99.90;;;;;;4920823;29;20063;-82
2021/11/04 05:26:12;;;;;;;124.97;44.70;;;7.50;99.90;;;;;;4920455;29;20352;-82
2021/11/04 05:28:44;;;;;;;122.57;44.63;;;7.50;99.90;;;;;;4919671;29;20683;-83
2021/11/04 05:31:14;;;;;;;124.53;44.33;;;7.40;99.90;;;;;;4920770;29;20146;-83
2021/11/04 05:33:41;;;;;;;135.43;44.13;;;7.40;99.90;;;;;;4920418;29;20641;-82
2021/11/04 05:36:08;;;;;;;141.35;45.78;;;7.40;99.90;;;;;;4920771;29;20115;-83
2021/11/04 05:38:36;;;;;;;132.77;46.70;;;7.40;99.90;;;;;;4920340;29;20444;-83
2021/11/04 05:41:02;;;;;;;140.80;46.53;;;7.40;99.90;;;;;;4920414;29;20111;-83
2021/11/04 05:43:30;;;;;;;142.55;46.55;;;7.40;99.90;;;;;;4920124;29;20072;-79
2021/11/04 05:46:01;;;;;;;136.23;45.70;;;7.40;99.90;;;;;;4917573;29;20048;-78
2021/11/04 05:48:29;;;;;;;132.38;43.13;;;7.40;99.90;;;;;;4919466;29;20107;-79
2021/11/04 05:50:57;;;;;;;129.85;43.67;;;7.30;99.90;;;;;;4919979;29;20048;-78
2021/11/04 05:53:24;;;;;;;131.70;44.83;;;7.40;99.90;;;;;;4912894;29;20063;-79
2021/11/04 05:55:54;;;;;;;126.30;42.60;;;7.30;99.90;;;;;;4918794;29;20048;-78
2021/11/04 05:58:22;;;;;;;134.55;44.60;;;7.20;99.90;;;;;;4919042;29;20156;-79
2021/11/04 06:00:49;;;;;;;135.13;45.15;;;7.30;99.90;;;;;;4919143;29;20056;-79
2021/11/04 06:03:16;;;;;;;127.70;43.13;;;7.30;99.90;;;;;;4919027;29;20111;-78
2021/11/04 06:05:45;;;;;;;124.18;41.63;;;7.20;99.90;;;;;;4918907;29;20127;-78
2021/11/04 06:08:13;;;;;;;124.90;41.83;;;7.10;99.90;;;;;;4918837;29;20051;-78
2021/11/04 06:10:43;;;;;;;116.95;41.17;;;7.00;99.90;;;;;;4921592;29;20052;-77
2021/11/04 06:13:11;;;;;;;117.10;41.28;;;7.10;99.90;;;;;;4932443;29;20056;-79
2021/11/04 06:15:39;;;;;;;113.07;42.13;;;7.10;99.90;;;;;;4929943;29;20087;-77
2021/11/04 06:18:09;;;;;;;119.28;44.65;;;7.00;99.90;;;;;;4921147;29;20421;-77
2021/11/04 06:20:36;;;;;;;132.73;51.15;;;7.00;99.90;;;;;;4919658;29;20056;-78
2021/11/04 06:23:08;;;;;;;130.43;48.80;;;7.10;99.90;;;;;;4919886;29;20048;-78
2021/11/04 06:25:37;;;;;;;127.28;46.33;;;7.10;99.90;;;;;;4919313;29;20076;-78
2021/11/04 06:28:04;;;;;;;126.40;45.33;;;7.10;99.90;;;;;;4919170;29;20080;-78
2021/11/04 06:30:33;;;;;;;122.07;46.50;;;7.10;99.90;;;;;;4919292;29;20083;-79
2021/11/04 06:33:00;;;;;;;133.50;50.63;;;7.20;99.90;;;;;;4919253;29;20051;-78
2021/11/04 06:35:28;;;;;;;145.05;55.35;;;7.10;99.90;;;;;;4918705;29;20135;-78
2021/11/04 06:37:56;;;;;;;146.02;54.88;;;7.10;99.90;;;;;;4918998;29;20063;-78
2021/11/04 06:40:28;;;;;;;148.68;56.35;;;7.00;99.90;;;;;;4918101;29;20467;-79
2021/11/04 06:42:59;;;;;;;151.50;56.10;;;6.90;99.90;;;;;;4919440;29;20431;-78
2021/11/04 06:45:26;;;;;;;151.20;56.63;;;6.90;99.90;;;;;;4919091;29;20052;-78
2021/11/04 06:47:55;;;;;;;161.70;60.47;;;6.90;99.90;;;;;;4918683;29;20056;-77
2021/11/04 06:50:28;;;;;;;162.27;57.70;;;6.90;99.90;;;;;;4918800;29;20055;-81
2021/11/04 06:53:01;;;;;;;154.93;56.13;;;6.90;99.90;;;;;;4919278;29;20052;-82
2021/11/04 06:55:30;;;;;;;150.23;53.35;;;6.80;99.90;;;;;;4919004;29;20365;-81
2021/11/04 06:58:01;;;;;;;148.73;53.25;;;6.90;99.90;;;;;;4918684;29;20083;-82
2021/11/04 07:00:31;;;;;;;146.32;52.63;;;6.80;99.90;;;;;;4918817;29;20400;-81
2021/11/04 07:03:08;;;;;;;142.88;50.97;;;6.80;99.90;;;;;;4918577;29;20127;-82
2021/11/04 07:05:35;;;;;;;144.73;51.90;;;6.90;99.90;;;;;;4917099;29;20142;-82
2021/11/04 07:08:04;;;;;;;140.95;53.47;;;6.80;99.90;;;;;;4917666;29;20054;-82
2021/11/04 07:10:32;;;;;;;142.38;50.13;;;6.80;99.90;;;;;;4917741;29;20095;-82
2021/11/04 07:12:59;;;;;;;137.82;50.97;;;6.80;99.90;;;;;;4915177;29;20488;-82
2021/11/04 07:15:26;;;;;;;135.15;48.75;;;6.90;99.90;;;;;;4916934;29;20060;-82
2021/11/04 07:17:53;;;;;;;138.95;50.38;;;6.90;99.90;;;;;;4917038;29;20066;-82
2021/11/04 07:20:20;;;;;;;123.25;47.75;;;7.00;99.90;;;;;;4917599;29;20353;-83
2021/11/04 07:22:50;;;;;;;125.80;46.45;;;6.90;99.90;;;;;;4917086;29;20052;-82
2021/11/04 07:25:19;;;;;;;126.97;49.10;;;6.90;99.90;;;;;;4914781;29;20074;-81
2021/11/04 07:27:59;;;;;;;130.60;48.65;;;6.90;99.90;;;;;;4916822;29;20391;-80
2021/11/04 07:30:27;;;;;;;133.30;47.92;;;6.90;99.90;;;;;;4915736;29;20197;-80
2021/11/04 07:32:58;;;;;;;127.72;47.22;;;6.80;99.90;;;;;;4917282;29;20172;-80
2021/11/04 07:35:27;;;;;;;115.65;44.22;;;6.90;99.90;;;;;;4916884;29;20145;-81
2021/11/04 07:37:55;;;;;;;117.07;42.95;;;6.80;99.90;;;;;;4917031;29;20044;-80
2021/11/04 07:40:23;;;;;;;124.65;45.45;;;6.80;99.90;;;;;;4916899;29;20147;-80
2021/11/04 07:42:51;;;;;;;119.72;43.60;;;6.70;99.90;;;;;;4916896;29;20056;-80
2021/11/04 07:45:20;;;;;;;126.40;44.38;;;6.70;99.90;;;;;;4917600;29;20139;-80
2021/11/04 07:47:48;;;;;;;117.55;46.42;;;6.60;99.90;;;;;;4917950;29;20356;-80
2021/11/04 07:50:18;;;;;;;119.63;46.47;;;6.70;99.90;;;;;;4917684;29;20080;-80
2021/11/04 07:52:45;;;;;;;114.65;43.65;;;6.70;99.90;;;;;;4918809;29;20052;-80
2021/11/04 07:55:13;;;;;;;114.88;44.08;;;6.80;99.90;;;;;;4918376;29;20055;-80
2021/11/04 07:57:40;;;;;;;112.13;44.95;;;6.80;99.90;;;;;;4924450;29;20139;-80
2021/11/04 08:00:09;;;;;;;97.97;41.28;;;6.80;99.90;;;;;;4918911;29;20052;-81
2021/11/04 08:02:40;;;;;;;103.85;40.60;;;6.70;99.90;;;;;;4918935;29;20437;-81
2021/11/04 08:05:08;;;;;;;98.60;40.83;;;6.70;99.90;;;;;;4921425;29;20055;-81
2021/11/04 08:07:35;;;;;;;91.97;40.50;;;6.70;99.90;;;;;;4921305;29;20108;-81
2021/11/04 08:10:03;;;;;;;95.80;40.95;;;6.80;99.90;;;;;;4921204;29;20379;-81
2021/11/04 08:12:32;;;;;;;89.22;39.10;;;6.80;99.90;;;;;;4920557;29;20058;-80
2021/11/04 08:14:59;;;;;;;90.57;39.72;;;6.80;99.90;;;;;;4920235;29;20091;-79
2021/11/04 08:17:26;;;;;;;89.85;39.45;;;6.80;99.90;;;;;;4920992;29;20048;-79
2021/11/04 08:19:54;;;;;;;81.47;37.95;;;6.90;99.90;;;;;;4921074;29;20143;-80
2021/11/04 08:22:21;;;;;;;78.15;35.60;;;7.00;99.90;;;;;;4921086;29;20444;-80
2021/11/04 08:24:48;;;;;;;73.38;35.55;;;7.10;99.90;;;;;;4920613;29;20531;-80
2021/11/04 08:27:15;;;;;;;73.97;33.85;;;7.10;99.90;;;;;;4920466;29;20056;-80
2021/11/04 08:29:42;;;;;;;68.97;33.00;;;7.20;99.90;;;;;;4920053;29;20147;-80
2021/11/04 08:32:11;;;;;;;71.68;33.60;;;7.30;99.90;;;;;;4920211;29;20076;-80
2021/11/04 08:34:38;;;;;;;76.22;33.17;;;7.30;99.90;;;;;;4919910;29;20540;-81
2021/11/04 08:37:06;;;;;;;72.75;33.58;;;7.40;99.90;;;;;;4919737;29;20155;-80
2021/11/04 08:39:34;;;;;;;69.55;32.83;;;7.40;99.90;;;;;;4920320;29;20131;-81
2021/11/04 08:42:01;;;;;;;74.28;33.17;;;7.50;99.90;;;;;;4920781;29;20139;-80
2021/11/04 08:44:28;;;;;;;70.00;33.00;;;7.50;99.90;;;;;;4920744;29;20127;-80
2021/11/04 08:46:55;;;;;;;68.25;32.10;;;7.60;99.90;;;;;;4920299;29;20448;-80
2021/11/04 08:49:25;;;;;;;64.80;31.25;;;7.70;99.90;;;;;;4920585;29;20079;-81
2021/11/04 08:51:54;;;;;;;62.53;29.60;;;7.80;99.90;;;;;;4920541;29;20153;-81
2021/11/04 08:54:51;;;;;;;63.65;30.00;;;7.80;99.90;;;;;;4920589;29;20052;-80
2021/11/04 08:57:21;;;;;;;72.93;32.35;;;7.90;99.90;;;;;;4920340;29;20134;-81
2021/11/04 08:59:48;;;;;;;71.93;33.17;;;7.90;99.90;;;;;;4920731;29;20462;-81
2021/11/04 09:02:18;;;;;;;70.18;34.00;;;7.80;99.90;;;;;;4919973;29;20120;-81
2021/11/04 09:04:47;;;;;;;76.22;33.95;;;7.80;99.90;;;;;;4922591;29;20440;-81
2021/11/04 09:07:15;;;;;;;78.90;33.92;;;7.80;99.90;;;;;;4921496;29;20400;-81
2021/11/04 09:09:44;;;;;;;73.47;34.83;;;7.90;99.90;;;;;;4919978;29;20163;-81
2021/11/04 09:13:08;;;;;;;74.90;33.15;;;7.90;99.90;;;;;;4920284;29;20056;-80
2021/11/04 09:15:58;;;;;;;;;;;8.00;99.90;;;;;;4887354;29;20056;-80
2021/11/04 09:21:26;;;;;;;68.70;30.95;;;8.00;99.90;;;;;;4918537;29;20056;-79
2021/11/04 09:27:15;;;;;;;71.82;31.75;;;8.10;99.90;;;;;;4917359;29;20044;-80
2021/11/04 09:30:34;;;;;;;73.70;33.47;;;8.20;99.90;;;;;;4919457;29;20063;-80
2021/11/04 09:33:15;;;;;;;81.95;34.53;;;8.20;99.90;;;;;;4919991;29;20151;-79
2021/11/04 09:38:29;;;;;;;61.13;30.30;;;8.30;99.90;;;;;;4918328;29;20373;-81
2021/11/04 09:41:35;;;;;;;57.50;31.95;;;8.30;99.90;;;;;;4919394;29;20095;-81
2021/11/04 09:44:18;;;;;;;60.70;32.03;;;8.20;99.90;;;;;;4905551;29;20056;-81
2021/11/04 09:50:52;;;;;;;69.95;32.92;;;8.30;99.90;;;;;;4898346;29;20060;-79
2021/11/04 10:00:44;;;;;;;64.20;33.08;;;8.70;99.90;;;;;;4918424;29;20115;-80
2021/11/04 10:03:51;;;;;;;63.63;32.58;;;8.90;99.90;;;;;;4918742;29;20067;-79
2021/11/04 10:07:17;;;;;;;68.63;33.22;;;9.00;99.90;;;;;;4880430;29;20136;-78
2021/11/04 10:19:45;;;;;;;63.80;33.38;;;9.60;99.90;;;;;;4956065;29;20063;-76
2021/11/04 10:22:12;;;;;;;60.08;31.15;;;9.80;99.90;;;;;;4959006;28;20418;-77
2021/11/04 10:24:48;;;;;;;71.10;33.53;;;9.70;99.90;;;;;;4957532;28;20093;-76
2021/11/04 10:27:32;;;;;;;69.03;33.13;;;9.80;99.90;;;;;;4958332;28;20109;-76
2021/11/04 10:30:02;;;;;;;63.97;31.92;;;9.80;99.90;;;;;;4958540;28;20138;-77
2021/11/04 10:32:36;;;;;;;69.68;34.35;;;9.80;99.90;;;;;;4958567;28;20462;-77
2021/11/04 10:35:11;;;;;;;70.97;34.63;;;9.80;99.90;;;;;;4957759;28;20102;-76
2021/11/04 10:37:43;;;;;;;65.88;34.33;;;9.90;99.90;;;;;;4957826;28;20068;-77
2021/11/04 10:40:16;;;;;;;66.43;34.33;;;9.90;99.90;;;;;;4957892;28;20091;-76
2021/11/04 10:42:54;;;;;;;68.57;34.83;;;10.00;99.90;;;;;;4957836;28;20429;-77
2021/11/04 10:45:24;;;;;;;63.63;32.42;;;10.10;99.90;;;;;;4957124;28;20047;-76
2021/11/04 10:48:15;;;;;;;67.80;34.47;;;10.10;99.90;;;;;;4957749;28;20051;-76
2021/11/04 10:50:44;;;;;;;69.13;34.30;;;10.10;99.90;;;;;;4958539;28;20059;-77
2021/11/04 10:53:12;;;;;;;58.72;31.90;;;10.00;99.90;;;;;;4958735;28;20285;-76
2021/11/04 10:55:39;;;;;;;65.75;33.20;;;10.10;99.90;;;;;;4958339;28;20134;-76
2021/11/04 10:58:25;;;;;;;60.85;31.85;;;10.00;99.90;;;;;;4958047;28;20128;-75
2021/11/04 11:00:52;;;;;;;59.67;31.80;;;10.00;99.90;;;;;;4957711;28;20138;-76
2021/11/04 11:03:22;;;;;;;59.67;31.13;;;10.00;99.90;;;;;;4957930;28;20051;-76
2021/11/04 11:05:55;;;;;;;56.60;31.85;;;10.00;99.90;;;;;;4958101;28;20143;-76
2021/11/04 11:08:22;;;;;;;;;;;10.00;99.90;;;;;;4958200;28;20089;-76
2021/11/04 11:10:48;;;;;;;62.65;32.30;;;10.10;99.90;;;;;;4958301;28;20020;-76
2021/11/04 11:13:15;;;;;;;64.97;34.00;;;10.00;99.90;;;;;;4957467;28;20078;-76
2021/11/04 11:15:45;;;;;;;63.15;34.53;;;10.00;99.90;;;;;;4957166;28;20082;-76
2021/11/04 11:18:15;;;;;;;63.33;32.95;;;10.10;99.90;;;;;;4957336;28;20466;-76
2021/11/04 11:20:44;;;;;;;57.58;33.50;;;10.10;99.90;;;;;;4957054;28;20099;-76
2021/11/04 11:23:14;;;;;;;62.15;34.00;;;10.10;99.90;;;;;;4956861;28;20138;-75
2021/11/04 11:25:42;;;;;;;67.53;34.30;;;10.10;99.90;;;;;;4956440;28;20336;-75
2021/11/04 11:28:10;;;;;;;63.67;35.03;;;10.10;99.90;;;;;;4956761;28;20154;-75
2021/11/04 11:30:37;;;;;;;56.78;32.55;;;10.10;99.90;;;;;;4956779;28;20429;-75
2021/11/04 11:33:18;;;;;;;58.78;34.35;;;10.10;99.90;;;;;;4956737;28;20134;-75
2021/11/04 11:36:10;;;;;;;66.70;35.20;;;10.10;99.90;;;;;;4956434;28;20095;-75
2021/11/04 11:39:10;;;;;;;66.60;35.80;;;10.00;99.90;;;;;;4956099;28;20151;-76
2021/11/04 11:42:07;;;;;;;61.85;34.85;;;10.00;99.90;;;;;;4956932;28;20051;-79
2021/11/04 11:44:36;;;;;;;65.60;35.70;;;10.10;99.90;;;;;;4956301;28;20070;-77
2021/11/04 11:47:05;;;;;;;65.05;37.05;;;10.10;99.90;;;;;;4957989;28;20137;-76
2021/11/04 11:49:33;;;;;;;65.88;36.25;;;10.10;99.90;;;;;;4957126;28;20114;-76
2021/11/04 11:51:59;;;;;;;68.43;37.85;;;10.10;99.90;;;;;;4957151;28;20263;-77
2021/11/04 11:54:59;;;;;;;62.70;35.28;;;10.10;99.90;;;;;;4956847;28;20139;-76
2021/11/04 11:57:28;;;;;;;67.72;38.22;;;10.20;99.90;;;;;;4956797;28;20078;-76
2021/11/04 11:59:56;;;;;;;64.53;35.78;;;10.30;99.90;;;;;;4956935;28;20109;-76
2021/11/04 12:02:44;;;;;;;57.33;35.83;;;10.40;99.90;;;;;;4956421;28;20121;-76
2021/11/04 12:05:35;;;;;;;55.20;33.13;;;10.60;99.90;;;;;;4956015;28;20055;-76
2021/11/04 12:08:34;;;;;;;60.15;34.72;;;10.70;99.90;;;;;;4956567;28;20099;-76
2021/11/04 12:11:02;;;;;;;55.40;34.25;;;10.70;99.90;;;;;;4954231;28;20051;-76
2021/11/04 12:13:39;;;;;;;53.90;31.30;;;10.80;99.90;;;;;;4956026;28;20057;-77
2021/11/04 12:16:15;;;;;;;51.05;31.58;;;11.00;99.90;;;;;;4956851;28;20140;-76
2021/11/04 12:18:52;;;;;;;52.38;32.13;;;11.00;99.90;;;;;;4956248;28;20051;-75
2021/11/04 12:21:27;;;;;;;50.90;30.25;;;11.10;99.90;;;;;;4956345;28;20062;-75
2021/11/04 12:24:01;;;;;;;49.20;29.58;;;11.10;99.90;;;;;;4956577;28;20101;-76
2021/11/04 12:26:40;;;;;;;51.47;29.83;;;11.10;99.90;;;;;;4956053;28;20065;-76
2021/11/04 12:29:11;;;;;;;49.95;30.60;;;11.00;99.90;;;;;;4956654;28;20428;-75
2021/11/04 12:31:45;;;;;;;46.92;30.65;;;10.90;99.90;;;;;;4958394;28;20134;-75
2021/11/04 12:34:20;;;;;;;41.15;28.45;;;10.90;99.90;;;;;;4957184;28;20057;-76
2021/11/04 12:36:59;;;;;;;43.63;28.80;;;11.00;99.90;;;;;;4956660;28;20059;-76
2021/11/04 12:42:57;;;;;;;52.78;31.85;;;11.00;99.90;;;;;;4962626;28;20047;-77
2021/11/04 12:45:28;;;;;;;48.45;31.67;;;10.90;99.90;;;;;;4960195;28;20061;-76
2021/11/04 12:48:00;;;;;;;52.95;32.65;;;10.90;99.90;;;;;;4959600;28;20055;-75
2021/11/04 12:50:28;;;;;;;48.97;31.00;;;10.80;99.90;;;;;;4960016;28;20091;-75
2021/11/04 12:53:01;;;;;;;47.53;29.83;;;10.80;99.90;;;;;;4960498;28;20128;-77
2021/11/04 12:55:28;;;;;;;49.33;31.90;;;10.80;99.90;;;;;;4959792;28;20400;-75
2021/11/04 12:58:00;;;;;;;46.72;30.58;;;10.80;99.90;;;;;;4964002;28;20193;-75
2021/11/04 13:00:31;;;;;;;42.25;29.25;;;10.70;99.90;;;;;;4959380;28;20129;-76
2021/11/04 13:02:58;;;;;;;46.17;30.63;;;10.80;99.90;;;;;;4959401;28;20062;-75
2021/11/04 13:05:25;;;;;;;45.35;30.85;;;10.80;99.90;;;;;;4958804;28;20053;-75
2021/11/04 13:07:55;;;;;;;46.90;31.77;;;10.80;99.90;;;;;;4959524;28;20135;-75
2021/11/04 13:10:25;;;;;;;51.20;33.33;;;10.90;99.90;;;;;;4958831;28;20051;-75
2021/11/04 13:12:54;;;;;;;50.28;32.50;;;10.70;99.90;;;;;;4959147;28;20051;-75
2021/11/04 13:15:22;;;;;;;48.45;32.72;;;10.70;99.90;;;;;;4958926;28;20047;-75
2021/11/04 13:17:53;;;;;;;50.40;33.63;;;10.70;99.90;;;;;;4958669;28;20153;-76
2021/11/04 13:20:25;;;;;;;46.47;32.75;;;10.70;99.90;;;;;;4959902;28;20362;-75
2021/11/04 13:22:54;;;;;;;47.38;32.67;;;10.60;99.90;;;;;;4958755;28;20159;-76
2021/11/04 13:25:24;;;;;;;43.72;30.80;;;10.60;99.90;;;;;;4958420;28;20407;-75
2021/11/04 13:27:55;;;;;;;45.67;29.77;;;10.60;99.90;;;;;;4958854;28;20404;-75
2021/11/04 13:30:36;;;;;;;44.38;30.60;;;10.60;99.90;;;;;;4958570;28;20134;-75
2021/11/04 13:33:06;;;;;;;49.35;31.00;;;10.50;99.90;;;;;;4960258;28;20408;-75